createdAt,value
2023-10-09T00:01:52.614Z,2.30
2023-10-09T00:07:16.798Z,2.38
2023-10-09T00:12:40.106Z,2.47
2023-10-09T00:18:03.159Z,2.57
2023-10-09T00:23:27.090Z,2.61
2023-10-09T00:28:51.587Z,2.56
2023-10-09T00:34:15.537Z,2.57
2023-10-09T00:39:38.385Z,2.50
2023-10-09T00:45:06.373Z,2.46
2023-10-09T00:50:31.471Z,2.45
2023-10-09T00:55:56.617Z,2.39
2023-10-09T01:01:19.005Z,2.36
2023-10-09T01:12:51.119Z,2.30
2023-10-09T01:18:14.565Z,2.12
2023-10-09T01:23:38.696Z,2.10
2023-10-09T01:29:01.529Z,2.06
2023-10-09T01:34:42.294Z,1.97
2023-10-09T01:45:53.465Z,2.04
2023-10-09T01:51:18.656Z,1.96
2023-10-09T01:56:42.820Z,1.99
2023-10-09T02:02:06.877Z,2.02
2023-10-09T02:07:30.468Z,1.93
2023-10-09T02:13:01.612Z,1.83
2023-10-09T02:59:48.132Z,2.17
2023-10-09T03:03:42.613Z,2.09
2023-10-09T03:09:06.682Z,2.12
2023-10-09T03:14:30.480Z,2.17
2023-10-09T03:19:53.360Z,2.16
2023-10-09T03:25:17.901Z,2.14
2023-10-09T03:30:41.805Z,2.09
2023-10-09T03:36:05.962Z,2.12
2023-10-09T03:41:28.434Z,2.15
2023-10-09T03:46:52.677Z,2.20
2023-10-09T03:52:17.356Z,2.22
2023-10-09T03:57:40.554Z,2.25
2023-10-09T04:03:05.228Z,2.28
2023-10-09T04:08:31.402Z,2.27
2023-10-09T04:13:58.159Z,2.26
2023-10-09T04:19:22.771Z,2.26
2023-10-09T04:24:45.917Z,2.20
2023-10-09T04:30:08.804Z,2.14
2023-10-09T04:35:32.114Z,2.05
2023-10-09T04:40:56.068Z,2.07
2023-10-09T04:46:20.414Z,2.12
2023-10-09T04:51:44.425Z,2.21
2023-10-09T04:57:08.611Z,2.29
2023-10-09T05:02:33.156Z,2.34
2023-10-09T05:07:58.367Z,2.36
2023-10-09T05:13:22.311Z,2.38
2023-10-09T05:18:46.506Z,2.42
2023-10-09T05:24:16.639Z,2.46
2023-10-09T05:29:41.660Z,2.53
2023-10-09T05:35:04.374Z,2.58
2023-10-09T05:40:28.955Z,2.68
2023-10-09T05:46:10.878Z,2.80
2023-10-09T05:57:27.443Z,3.16
2023-10-09T06:03:02.658Z,3.11
2023-10-09T06:08:42.170Z,3.38
2023-10-09T06:14:10.531Z,3.41
2023-10-09T06:19:35.794Z,3.54
2023-10-09T06:25:00.564Z,3.63
2023-10-09T06:30:27.940Z,3.72
2023-10-09T06:35:57.294Z,3.78
2023-10-09T06:41:27.913Z,3.88
2023-10-09T06:46:51.864Z,3.98
2023-10-09T06:52:17.210Z,3.97
2023-10-09T06:57:47.636Z,4.02
2023-10-09T07:03:11.965Z,3.96
2023-10-09T07:08:36.522Z,3.91
2023-10-09T07:13:59.768Z,3.78
2023-10-09T07:25:00.439Z,4.16
2023-10-09T07:30:30.807Z,4.20
2023-10-09T07:35:57.667Z,4.30
2023-10-09T07:41:20.383Z,4.48
2023-10-09T07:46:56.916Z,4.51
2023-10-09T07:52:19.708Z,4.76
2023-10-09T07:57:44.186Z,5.13
2023-10-09T08:03:08.428Z,5.45
2023-10-09T08:08:38.429Z,5.57
2023-10-09T08:13:57.423Z,5.54
2023-10-09T08:19:35.558Z,5.64
2023-10-09T08:24:58.364Z,5.74
2023-10-09T08:30:27.746Z,5.86
2023-10-09T08:35:52.420Z,5.88
2023-10-09T08:41:24.325Z,6.00
2023-10-09T08:46:48.128Z,6.19
2023-10-09T08:52:12.663Z,6.28
2023-10-09T08:57:35.831Z,6.36
2023-10-09T09:02:58.508Z,6.39
2023-10-09T09:08:30.632Z,6.57
2023-10-09T09:14:23.718Z,6.76
2023-10-09T09:19:49.545Z,6.67
2023-10-09T09:25:18.695Z,6.69
2023-10-09T09:30:48.266Z,6.68
2023-10-09T09:36:18.828Z,6.87
2023-10-09T09:41:44.345Z,7.04
2023-10-09T09:47:08.969Z,7.24
2023-10-09T09:52:33.093Z,7.46
2023-10-09T09:57:58.769Z,7.54
2023-10-09T10:03:35.122Z,7.61
2023-10-09T10:08:57.594Z,7.71
2023-10-09T10:14:24.968Z,7.84
2023-10-09T10:20:20.406Z,7.99
2023-10-09T10:25:50.793Z,8.27
2023-10-09T10:36:46.492Z,9.38
2023-10-09T10:42:16.916Z,9.57
2023-10-09T10:47:42.922Z,9.65
2023-10-09T10:53:21.187Z,9.20
2023-10-09T10:58:51.567Z,9.04
2023-10-09T11:04:34.293Z,9.22
2023-10-09T11:10:13.264Z,9.48
2023-10-09T11:21:22.694Z,9.82
2023-10-09T11:26:47.891Z,9.84
2023-10-09T11:32:27.417Z,9.86
2023-10-09T11:37:50.546Z,9.81
2023-10-09T11:43:15.834Z,9.73
2023-10-09T11:48:41.313Z,9.21
2023-10-09T11:54:04.924Z,9.37
2023-10-09T11:59:28.809Z,9.58
2023-10-09T12:04:51.281Z,10.07
2023-10-09T12:10:16.003Z,10.16
2023-10-09T12:15:39.428Z,10.66
2023-10-09T12:26:36.715Z,10.76
2023-10-09T12:32:02.830Z,10.99
2023-10-09T12:37:25.259Z,11.64
2023-10-09T12:42:49.552Z,13.03
2023-10-09T12:48:14.085Z,12.63
2023-10-09T12:53:38.072Z,13.38
2023-10-09T12:59:02.688Z,13.99
2023-10-09T13:04:31.002Z,14.16
2023-10-09T13:15:34.431Z,11.28
2023-10-09T13:20:57.047Z,11.11
2023-10-09T13:26:32.854Z,10.72
2023-10-09T13:31:55.554Z,10.46
2023-10-09T13:37:20.533Z,11.22
2023-10-09T13:42:44.005Z,13.28
2023-10-09T13:48:10.004Z,11.96
2023-10-09T13:53:32.583Z,11.16
2023-10-09T13:58:56.924Z,10.73
2023-10-09T14:04:20.799Z,11.44
2023-10-09T14:09:48.564Z,11.55
2023-10-09T14:15:13.026Z,11.38
2023-10-09T14:20:36.253Z,11.25
2023-10-09T14:26:03.389Z,11.22
2023-10-09T14:31:29.770Z,10.62
2023-10-09T14:36:52.375Z,10.47
2023-10-09T14:42:16.640Z,10.23
2023-10-09T14:47:39.341Z,10.11
2023-10-09T14:53:02.677Z,10.51
2023-10-09T14:58:26.985Z,11.18
2023-10-09T15:03:51.647Z,11.18
2023-10-09T15:09:16.507Z,11.02
2023-10-09T15:14:42.407Z,11.20
2023-10-09T15:20:06.606Z,11.69
2023-10-09T15:25:56.728Z,11.97
2023-10-09T15:31:22.464Z,12.20
2023-10-09T15:36:44.935Z,11.69
2023-10-09T15:42:26.403Z,10.74
2023-10-09T15:53:26.979Z,9.71
2023-10-09T15:58:50.209Z,9.50
2023-10-09T16:04:12.898Z,8.97
2023-10-09T16:09:37.228Z,8.45
2023-10-09T16:15:00.894Z,8.07
2023-10-09T16:20:25.734Z,7.77
2023-10-09T16:25:48.533Z,7.44
2023-10-09T16:36:46.723Z,7.33
2023-10-09T16:42:11.083Z,6.94
2023-10-09T16:47:33.536Z,6.63
2023-10-09T16:52:57.325Z,6.41
2023-10-09T16:58:21.046Z,6.37
2023-10-09T17:03:48.112Z,6.30
2023-10-09T17:09:12.277Z,6.17
2023-10-09T17:14:35.924Z,5.98
2023-10-09T17:19:59.703Z,5.98
2023-10-09T17:25:24.460Z,5.84
2023-10-09T17:30:48.756Z,5.71
2023-10-09T17:36:13.421Z,5.59
2023-10-09T17:41:36.655Z,5.54
2023-10-09T17:47:00.795Z,5.46
2023-10-09T17:52:24.502Z,5.35
2023-10-09T17:57:49.767Z,5.16
2023-10-09T18:08:45.055Z,5.06
2023-10-09T18:14:07.968Z,4.87
2023-10-09T18:19:30.668Z,4.77
2023-10-09T18:24:53.153Z,4.72
2023-10-09T18:30:17.724Z,4.70
2023-10-09T18:35:41.878Z,4.58
2023-10-09T18:41:06.553Z,4.38
2023-10-09T18:46:33.423Z,4.18
2023-10-09T18:51:59.895Z,4.11
2023-10-09T18:57:25.309Z,4.02
2023-10-09T19:02:48.428Z,3.95
2023-10-09T19:08:11.082Z,3.79
2023-10-09T19:13:35.944Z,3.67
2023-10-09T19:19:00.452Z,3.67
2023-10-09T19:24:22.842Z,3.75
2023-10-09T19:29:45.162Z,3.93
2023-10-09T19:35:08.268Z,4.18
2023-10-09T19:40:34.168Z,4.28
2023-10-09T19:45:56.720Z,4.51
2023-10-09T19:51:20.523Z,4.63
2023-10-09T19:56:44.064Z,4.69
2023-10-09T20:02:06.556Z,4.60
2023-10-09T20:07:29.747Z,4.39
2023-10-09T20:12:53.488Z,4.15
2023-10-09T20:18:16.477Z,4.10
2023-10-09T20:23:39.858Z,3.90
2023-10-09T20:29:03.517Z,3.63
2023-10-09T20:34:25.943Z,3.59
2023-10-09T20:39:50.146Z,3.49
2023-10-09T20:45:12.715Z,3.47
2023-10-09T20:50:37.532Z,3.51
2023-10-09T20:56:02.010Z,3.39
2023-10-09T21:01:27.417Z,3.28
2023-10-09T21:06:50.827Z,3.31
2023-10-09T21:12:14.990Z,3.23
2023-10-09T21:17:38.861Z,2.99
2023-10-09T21:23:04.813Z,2.75
2023-10-09T21:28:27.204Z,2.68
2023-10-09T21:39:26.244Z,2.50
2023-10-09T21:44:49.186Z,2.44
2023-10-09T21:50:13.711Z,2.36
2023-10-09T21:55:37.458Z,2.21
2023-10-09T22:01:01.448Z,1.97
2023-10-09T22:11:57.381Z,1.81
2023-10-09T22:17:22.539Z,1.67
2023-10-09T22:28:19.048Z,1.87
2023-10-09T22:39:25.670Z,1.99
2023-10-09T22:44:58.530Z,2.01
2023-10-09T22:50:26.057Z,1.73
2023-10-09T22:55:50.394Z,1.57
2023-10-09T23:01:19.600Z,1.50
2023-10-09T23:06:48.245Z,1.42
2023-10-09T23:12:11.793Z,1.26
2023-10-09T23:17:47.678Z,1.12
2023-10-09T23:23:11.752Z,1.07
2023-10-09T23:28:40.409Z,1.02
2023-10-09T23:34:05.135Z,1.01
2023-10-09T23:45:08.819Z,1.18
2023-10-09T23:50:33.105Z,1.27
2023-10-09T23:55:59.926Z,1.13
